Time;durP1;ratioP1;P1;durP2;ratioP2;P2;SDS_P1;SDS_P2;PMS_P1;PMS_P2;Temp;Humidity;BMP_temperature;BMP_pressure;BME280_temperature;BME280_humidity;BME280_pressure;Samples;Min_cycle;Max_cycle;Signal;HPM_P1;HPM_P2
2021/04/06 00:01:47;;;;;;;25.70;11.80;;;1.00;99.90;;;;;;5088835;28;20099;-68
2021/04/06 00:04:20;;;;;;;33.97;17.23;;;1.00;99.90;;;;;;5088685;28;20498;-68
2021/04/06 00:06:53;;;;;;;42.15;21.27;;;1.00;99.90;;;;;;5087408;28;20604;-68
2021/04/06 00:09:24;;;;;;;26.95;11.02;;;1.00;99.90;;;;;;5084103;28;20020;-69
2021/04/06 00:11:55;;;;;;;34.50;17.45;;;1.00;99.90;;;;;;5087439;28;20024;-69
2021/04/06 00:14:22;;;;;;;26.13;12.85;;;1.10;99.90;;;;;;5085422;28;20027;-69
2021/04/06 00:16:49;;;;;;;31.25;10.93;;;1.10;99.90;;;;;;5083293;28;20024;-68
2021/04/06 00:19:19;;;;;;;25.92;14.10;;;1.10;99.90;;;;;;5085678;28;20032;-69
2021/04/06 00:21:52;;;;;;;27.83;14.18;;;1.10;99.90;;;;;;5084770;28;20032;-68
2021/04/06 00:24:21;;;;;;;21.23;9.90;;;1.10;99.90;;;;;;5085060;28;20415;-67
2021/04/06 00:26:53;;;;;;;23.55;9.63;;;1.10;99.90;;;;;;5087364;28;20036;-68
2021/04/06 00:29:21;;;;;;;29.83;14.60;;;1.20;99.90;;;;;;5088120;28;20019;-67
2021/04/06 00:31:50;;;;;;;27.35;11.40;;;1.20;99.90;;;;;;5089168;28;20542;-67
2021/04/06 00:34:18;;;;;;;27.63;12.82;;;1.20;99.90;;;;;;5087983;28;20093;-66
2021/04/06 00:36:50;;;;;;;20.15;8.35;;;1.20;99.90;;;;;;5085164;28;20107;-66
2021/04/06 00:39:32;;;;;;;23.35;9.80;;;1.20;99.90;;;;;;5085415;28;20028;-65
2021/04/06 00:42:25;;;;;;;14.23;7.45;;;1.20;99.90;;;;;;5084101;28;20039;-65
2021/04/06 00:44:58;;;;;;;17.27;7.93;;;1.20;99.90;;;;;;5065679;28;20081;-65
2021/04/06 00:47:29;;;;;;;23.63;9.80;;;1.20;99.90;;;;;;5086012;28;20028;-65
2021/04/06 00:49:57;;;;;;;15.32;5.90;;;1.30;99.90;;;;;;5081472;28;20031;-64
2021/04/06 00:52:25;;;;;;;23.05;10.32;;;1.20;99.90;;;;;;5086718;28;20028;-64
2021/04/06 00:54:56;;;;;;;14.70;5.90;;;1.30;99.90;;;;;;5085171;28;20544;-64
2021/04/06 00:57:32;;;;;;;13.25;6.13;;;1.20;99.90;;;;;;5087102;28;20471;-64
2021/04/06 01:00:29;;;;;;;27.58;11.63;;;1.30;99.90;;;;;;5083967;28;20547;-64
2021/04/06 01:03:03;;;;;;;21.88;8.60;;;1.30;99.90;;;;;;5080765;28;20039;-65
2021/04/06 01:05:31;;;;;;;16.17;7.07;;;1.30;99.90;;;;;;5084718;28;20040;-64
2021/04/06 01:07:57;;;;;;;14.27;7.05;;;1.30;99.90;;;;;;5082730;28;20028;-65
2021/04/06 01:10:27;;;;;;;16.10;5.65;;;1.30;99.90;;;;;;5084201;28;20031;-65
2021/04/06 01:12:55;;;;;;;18.30;7.37;;;1.30;99.90;;;;;;5087914;28;20478;-65
2021/04/06 01:15:23;;;;;;;10.65;4.25;;;1.40;99.90;;;;;;5087829;28;20301;-65
2021/04/06 01:17:48;;;;;;;9.68;4.50;;;1.30;99.90;;;;;;5087335;28;20020;-66
2021/04/06 01:20:17;;;;;;;12.05;5.45;;;1.40;99.90;;;;;;5087601;28;20030;-66
2021/04/06 01:22:44;;;;;;;13.50;4.15;;;1.30;99.90;;;;;;5086228;28;20013;-67
2021/04/06 01:25:42;;;;;;;7.88;2.63;;;1.30;99.90;;;;;;5088166;28;20497;-67
2021/04/06 01:28:09;;;;;;;8.98;3.47;;;1.40;99.90;;;;;;5091731;28;20180;-67
2021/04/06 01:30:45;;;;;;;9.57;3.58;;;1.40;99.90;;;;;;5073646;28;20400;-67
2021/04/06 01:33:22;;;;;;;14.27;4.28;;;1.30;99.90;;;;;;5092236;28;20031;-67
2021/04/06 01:35:51;;;;;;;12.50;3.30;;;1.30;99.90;;;;;;5089270;28;20035;-67
2021/04/06 01:38:19;;;;;;;12.88;3.63;;;1.30;99.90;;;;;;5090742;28;20534;-67
2021/04/06 01:40:46;;;;;;;13.02;3.85;;;1.40;99.90;;;;;;5087763;28;20033;-68
2021/04/06 01:43:13;;;;;;;12.02;3.70;;;1.30;99.90;;;;;;5092502;28;20035;-69
2021/04/06 01:45:52;;;;;;;10.98;2.63;;;1.30;99.90;;;;;;5089636;28;20020;-68
2021/04/06 01:48:19;;;;;;;9.77;3.05;;;1.30;99.90;;;;;;5089380;28;20024;-68
2021/04/06 01:50:53;;;;;;;6.53;2.33;;;1.40;99.90;;;;;;5091900;28;20031;-67
2021/04/06 01:53:21;;;;;;;10.48;2.83;;;1.40;99.90;;;;;;5089850;28;20024;-67
2021/04/06 01:56:07;;;;;;;9.35;2.58;;;1.40;99.90;;;;;;5090669;28;20073;-66
2021/04/06 01:58:36;;;;;;;9.18;2.08;;;1.40;99.90;;;;;;5071251;28;20028;-66
2021/04/06 02:01:23;;;;;;;9.50;2.22;;;1.40;99.90;;;;;;5073505;28;20967;-66
2021/04/06 02:04:05;;;;;;;9.93;2.60;;;1.40;99.90;;;;;;5090948;28;20030;-64
2021/04/06 02:06:34;;;;;;;9.38;2.20;;;1.40;99.90;;;;;;5089435;28;20032;-64
2021/04/06 02:09:00;;;;;;;11.40;1.80;;;1.40;99.90;;;;;;5089086;28;20027;-67
2021/04/06 02:11:39;;;;;;;5.43;1.60;;;1.40;99.90;;;;;;5070196;28;20458;-67
2021/04/06 02:14:09;;;;;;;12.55;2.45;;;1.40;99.90;;;;;;5091625;28;20104;-65
2021/04/06 02:16:50;;;;;;;10.00;2.28;;;1.40;99.90;;;;;;5086335;28;20114;-66
2021/04/06 02:19:25;;;;;;;7.72;2.00;;;1.40;99.90;;;;;;5091269;28;20028;-66
2021/04/06 02:21:53;;;;;;;8.40;2.08;;;1.50;99.90;;;;;;5090768;28;20070;-66
2021/04/06 02:24:26;;;;;;;7.68;2.35;;;1.40;99.90;;;;;;5090276;28;20165;-66
2021/04/06 02:27:17;;;;;;;13.07;2.50;;;1.40;99.90;;;;;;5089598;28;20494;-66
2021/04/06 02:29:46;;;;;;;11.68;2.25;;;1.50;99.90;;;;;;5087325;28;20080;-67
2021/04/06 02:32:14;;;;;;;8.88;1.95;;;1.50;99.90;;;;;;5090853;28;20039;-66
2021/04/06 02:34:43;;;;;;;4.68;1.70;;;1.40;99.90;;;;;;5086428;28;20035;-66
2021/04/06 02:37:21;;;;;;;13.75;3.78;;;1.50;99.90;;;;;;5087500;28;20142;-66
2021/04/06 02:39:52;;;;;;;14.98;2.97;;;1.50;99.90;;;;;;5089396;28;20023;-66
2021/04/06 02:42:34;;;;;;;;;;;1.50;99.90;;;;;;5088082;28;20036;-66
2021/04/06 02:45:12;;;;;;;11.45;3.47;;;1.40;99.90;;;;;;5088385;28;20517;-66
2021/04/06 02:47:45;;;;;;;16.23;4.72;;;1.50;99.90;;;;;;5071650;28;20024;-66
2021/04/06 02:50:23;;;;;;;7.22;2.75;;;1.50;99.90;;;;;;5089710;28;20023;-66
2021/04/06 02:52:49;;;;;;;12.20;4.43;;;1.50;99.90;;;;;;5084748;28;20035;-66
2021/04/06 02:55:16;;;;;;;12.82;5.05;;;1.50;99.90;;;;;;5087665;28;20024;-65
2021/04/06 02:57:47;;;;;;;14.23;4.50;;;1.40;99.90;;;;;;5089296;28;20478;-66
2021/04/06 03:00:33;;;;;;;12.10;3.33;;;1.40;99.90;;;;;;5090714;28;20036;-66
2021/04/06 03:03:04;;;;;;;13.90;3.97;;;1.40;99.90;;;;;;5083788;28;20433;-66
2021/04/06 03:05:38;;;;;;;15.23;4.43;;;1.40;99.90;;;;;;5087334;28;20028;-66
2021/04/06 03:08:05;;;;;;;24.65;7.63;;;1.40;99.90;;;;;;5087240;28;20061;-66
2021/04/06 03:10:33;;;;;;;20.10;7.85;;;1.30;99.90;;;;;;5089740;28;20020;-66
2021/04/06 03:13:10;;;;;;;15.15;5.03;;;1.40;99.90;;;;;;5087979;28;20043;-66
2021/04/06 03:15:39;;;;;;;17.50;4.40;;;1.30;99.90;;;;;;5090330;28;20386;-66
2021/04/06 03:18:05;;;;;;;19.55;7.00;;;1.30;99.90;;;;;;5085479;28;20641;-66
2021/04/06 03:20:35;;;;;;;14.73;4.85;;;1.30;99.90;;;;;;5089091;28;20031;-66
2021/04/06 03:23:02;;;;;;;16.33;5.97;;;1.30;99.90;;;;;;5087406;28;20031;-66
2021/04/06 03:25:31;;;;;;;17.92;6.35;;;1.40;99.90;;;;;;5089705;28;20047;-66
2021/04/06 03:28:07;;;;;;;12.95;5.15;;;1.30;99.90;;;;;;5083772;28;20016;-66
2021/04/06 03:30:36;;;;;;;14.68;5.47;;;1.40;99.90;;;;;;5061463;28;20020;-66
2021/04/06 03:33:04;;;;;;;20.75;6.18;;;1.30;99.90;;;;;;5084204;28;20407;-66
2021/04/06 03:35:31;;;;;;;18.98;5.78;;;1.40;99.90;;;;;;5083445;28;20032;-66
2021/04/06 03:37:58;;;;;;;21.15;8.23;;;1.40;99.90;;;;;;5085295;28;20021;-66
2021/04/06 03:40:25;;;;;;;15.30;5.00;;;1.40;99.90;;;;;;5084019;28;20099;-65
2021/04/06 03:42:50;;;;;;;25.48;8.02;;;1.30;99.90;;;;;;5084554;28;20372;-65
2021/04/06 03:45:16;;;;;;;22.25;6.60;;;1.30;99.90;;;;;;5090051;28;20031;-65
2021/04/06 03:47:56;;;;;;;19.75;7.75;;;1.20;99.90;;;;;;5085761;28;20393;-65
2021/04/06 03:50:39;;;;;;;25.30;11.50;;;1.20;99.90;;;;;;5084359;28;20108;-64
2021/04/06 03:53:10;;;;;;;22.65;8.73;;;1.20;99.90;;;;;;5089283;28;20031;-64
2021/04/06 03:55:37;;;;;;;10.77;4.85;;;1.20;99.90;;;;;;5089094;28;20047;-64
2021/04/06 03:58:13;;;;;;;12.15;5.30;;;1.30;99.90;;;;;;5089653;28;20046;-64
2021/04/06 04:00:40;;;;;;;31.45;11.48;;;1.20;99.90;;;;;;5085796;28;20024;-64
2021/04/06 04:03:05;;;;;;;22.65;8.18;;;1.30;99.90;;;;;;5086062;28;20089;-64
2021/04/06 04:05:31;;;;;;;31.30;8.95;;;1.30;99.90;;;;;;5088370;28;20043;-64
2021/04/06 04:07:57;;;;;;;23.50;9.27;;;1.20;99.90;;;;;;5087370;28;20479;-64
2021/04/06 04:10:23;;;;;;;28.60;11.13;;;1.30;99.90;;;;;;5088578;28;20016;-65
2021/04/06 04:12:49;;;;;;;26.73;11.13;;;1.30;99.90;;;;;;5088485;28;20035;-65
2021/04/06 04:15:16;;;;;;;21.00;8.43;;;1.30;99.90;;;;;;5086875;28;20032;-65
2021/04/06 04:17:41;;;;;;;27.88;12.45;;;1.30;99.90;;;;;;5082983;28;20063;-65
2021/04/06 04:20:10;;;;;;;32.10;14.95;;;1.30;99.90;;;;;;5086747;28;20095;-65
2021/04/06 04:22:35;;;;;;;21.73;8.98;;;1.30;99.90;;;;;;5082404;28;20043;-64
2021/04/06 04:25:03;;;;;;;19.75;7.75;;;1.30;99.90;;;;;;5079167;28;20035;-64
2021/04/06 04:27:29;;;;;;;26.27;9.98;;;1.40;99.90;;;;;;5078683;28;20692;-66
2021/04/06 04:29:55;;;;;;;15.15;4.88;;;1.30;99.90;;;;;;5077704;28;20035;-66
2021/04/06 04:32:20;;;;;;;21.17;9.40;;;1.30;99.90;;;;;;5073013;28;20088;-65
2021/04/06 04:34:46;;;;;;;31.15;13.93;;;1.30;99.90;;;;;;5075249;28;20499;-65
2021/04/06 04:37:11;;;;;;;27.63;8.25;;;1.20;99.90;;;;;;5072408;28;20016;-64
2021/04/06 04:39:37;;;;;;;22.70;9.07;;;1.20;99.90;;;;;;5073295;28;20051;-65
2021/04/06 04:42:03;;;;;;;23.88;9.82;;;1.30;99.90;;;;;;5076333;28;20060;-65
2021/04/06 04:44:29;;;;;;;21.85;8.50;;;1.20;99.90;;;;;;5074770;28;20028;-66
2021/04/06 04:46:55;;;;;;;21.60;7.93;;;1.10;99.90;;;;;;5073005;28;20032;-65
2021/04/06 04:49:21;;;;;;;20.25;9.20;;;1.10;99.90;;;;;;5074291;28;20028;-65
2021/04/06 04:51:46;;;;;;;15.02;7.90;;;1.20;99.90;;;;;;5068037;28;20418;-66
2021/04/06 04:54:12;;;;;;;20.17;9.45;;;1.10;99.90;;;;;;5071819;28;20021;-66
2021/04/06 04:56:38;;;;;;;16.95;7.13;;;1.10;99.90;;;;;;5067090;28;20033;-66
2021/04/06 04:59:03;;;;;;;20.52;8.82;;;1.10;99.90;;;;;;5070180;28;20066;-66
2021/04/06 05:01:30;;;;;;;13.68;5.72;;;1.10;99.90;;;;;;5075992;28;20447;-66
2021/04/06 05:03:55;;;;;;;13.63;6.10;;;1.10;99.90;;;;;;5073014;28;20048;-66
2021/04/06 05:06:21;;;;;;;22.17;11.45;;;1.10;99.90;;;;;;5072904;28;20083;-66
2021/04/06 05:08:47;;;;;;;21.30;9.43;;;1.10;99.90;;;;;;5071658;28;20028;-66
2021/04/06 05:11:12;;;;;;;13.30;6.15;;;1.00;99.90;;;;;;5072127;28;20032;-66
2021/04/06 05:13:38;;;;;;;22.95;8.38;;;1.00;99.90;;;;;;5072924;28;20485;-67
2021/04/06 05:16:04;;;;;;;26.42;11.13;;;1.10;99.90;;;;;;5076316;28;20518;-66
2021/04/06 05:18:29;;;;;;;17.85;7.90;;;1.00;99.90;;;;;;5075400;28;20043;-67
2021/04/06 05:20:55;;;;;;;25.25;11.40;;;1.10;99.90;;;;;;5074875;28;20021;-66
2021/04/06 05:23:21;;;;;;;21.33;10.38;;;1.00;99.90;;;;;;5074819;28;20549;-65
2021/04/06 05:25:46;;;;;;;20.95;9.27;;;1.10;99.90;;;;;;5076516;28;20036;-67
2021/04/06 05:28:12;;;;;;;28.02;11.90;;;1.00;99.90;;;;;;5075693;28;20099;-66
2021/04/06 05:30:39;;;;;;;23.63;8.27;;;1.00;99.90;;;;;;5057135;28;20032;-66
2021/04/06 05:33:05;;;;;;;23.40;9.02;;;1.00;99.90;;;;;;5074011;28;20021;-67
2021/04/06 05:35:30;;;;;;;16.95;5.80;;;1.00;99.90;;;;;;5072562;28;20064;-66
2021/04/06 05:37:56;;;;;;;22.60;9.20;;;1.00;99.90;;;;;;5072772;28;20063;-67
2021/04/06 05:40:22;;;;;;;19.70;6.50;;;1.00;99.90;;;;;;5075083;28;20066;-66
2021/04/06 05:42:48;;;;;;;17.63;6.28;;;1.00;99.90;;;;;;5071319;28;20041;-66
2021/04/06 05:45:14;;;;;;;15.30;5.10;;;1.10;99.90;;;;;;5076472;28;20421;-66
2021/04/06 05:47:44;;;;;;;17.13;4.38;;;1.00;99.90;;;;;;5071282;28;20040;-66
2021/04/06 05:50:10;;;;;;;20.33;5.78;;;1.10;99.90;;;;;;5072339;28;20016;-66
2021/04/06 05:52:36;;;;;;;13.25;4.72;;;1.00;99.90;;;;;;5078305;28;20036;-66
2021/04/06 05:55:04;;;;;;;12.88;3.22;;;1.10;99.90;;;;;;5072482;28;20073;-67
2021/04/06 05:57:30;;;;;;;11.32;2.90;;;1.10;99.90;;;;;;5072074;28;20027;-67
2021/04/06 05:59:56;;;;;;;11.68;3.17;;;1.10;99.90;;;;;;5080355;28;20418;-67
2021/04/06 06:02:22;;;;;;;10.20;2.85;;;1.10;99.90;;;;;;5074213;28;20119;-68
2021/04/06 06:04:48;;;;;;;13.98;3.92;;;1.20;99.90;;;;;;5066381;28;20036;-68
2021/04/06 06:07:13;;;;;;;15.38;5.07;;;1.20;99.90;;;;;;5078505;28;20036;-67
2021/04/06 06:09:40;;;;;;;23.02;5.35;;;1.20;99.90;;;;;;5072256;28;20016;-67
2021/04/06 06:12:08;;;;;;;15.55;5.80;;;1.10;99.90;;;;;;5088841;28;20043;-68
2021/04/06 06:14:34;;;;;;;12.23;4.07;;;1.10;99.90;;;;;;5087662;28;20107;-68
2021/04/06 06:17:14;;;;;;;11.05;3.70;;;1.10;99.90;;;;;;5080844;28;20103;-67
2021/04/06 06:19:40;;;;;;;18.80;4.55;;;1.00;99.90;;;;;;5062540;28;20027;-68
2021/04/06 06:22:29;;;;;;;16.58;4.53;;;1.00;99.90;;;;;;5078375;28;20067;-68
2021/04/06 06:25:06;;;;;;;16.67;4.93;;;1.00;99.90;;;;;;5074736;28;20035;-68
2021/04/06 06:27:37;;;;;;;13.80;5.75;;;1.20;99.90;;;;;;5081395;28;20086;-67
2021/04/06 06:30:27;;;;;;;9.27;2.45;;;1.20;99.90;;;;;;5090709;28;20035;-68
2021/04/06 06:33:41;;;;;;;12.55;3.45;;;1.30;99.90;;;;;;5079068;28;20042;-68
2021/04/06 06:36:12;;;;;;;8.93;3.20;;;1.20;99.90;;;;;;5082316;28;20046;-68
2021/04/06 06:38:40;;;;;;;13.55;4.05;;;1.20;99.90;;;;;;5088716;28;20028;-68
2021/04/06 06:41:08;;;;;;;11.95;4.93;;;1.40;99.90;;;;;;5096932;28;20479;-67
2021/04/06 06:43:34;;;;;;;13.60;4.63;;;1.50;99.90;;;;;;5093861;28;20036;-68
2021/04/06 06:46:00;;;;;;;14.15;6.40;;;1.60;99.90;;;;;;5089892;28;20051;-67
2021/04/06 06:48:27;;;;;;;20.17;7.93;;;1.80;99.90;;;;;;5090938;28;20016;-67
2021/04/06 06:50:53;;;;;;;13.05;5.05;;;1.70;99.90;;;;;;5091111;28;20032;-68
2021/04/06 06:53:39;;;;;;;19.48;5.82;;;2.00;99.90;;;;;;5091131;28;20352;-68
2021/04/06 06:56:10;;;;;;;17.63;7.22;;;1.80;99.90;;;;;;5091518;28;20032;-68
2021/04/06 06:58:41;;;;;;;16.27;6.72;;;2.00;99.90;;;;;;5078907;28;20499;-67
2021/04/06 07:01:27;;;;;;;23.60;9.90;;;2.10;99.90;;;;;;5092464;28;20036;-67
2021/04/06 07:04:02;;;;;;;18.00;6.30;;;2.10;99.90;;;;;;5082655;28;20093;-68
2021/04/06 07:06:28;;;;;;;32.13;13.68;;;1.90;99.90;;;;;;5085143;28;20081;-68
2021/04/06 07:08:54;;;;;;;15.10;6.03;;;1.70;99.90;;;;;;5067908;28;20655;-68
2021/04/06 07:11:21;;;;;;;19.63;6.32;;;1.80;99.90;;;;;;5085252;28;20036;-68
2021/04/06 07:13:52;;;;;;;28.13;10.30;;;1.80;99.90;;;;;;5084821;28;20424;-67
2021/04/06 07:16:18;;;;;;;12.18;4.25;;;1.80;99.90;;;;;;5086828;28;20016;-68
2021/04/06 07:18:47;;;;;;;18.33;6.82;;;1.90;99.90;;;;;;5090265;28;20409;-69
2021/04/06 07:21:15;;;;;;;22.25;10.75;;;1.90;99.90;;;;;;5082311;28;20028;-67
2021/04/06 07:24:08;;;;;;;18.70;9.30;;;1.80;99.90;;;;;;5081187;28;20033;-67
2021/04/06 07:26:34;;;;;;;17.27;7.25;;;1.80;99.90;;;;;;5076248;28;20029;-68
2021/04/06 07:29:01;;;;;;;20.63;7.10;;;1.80;99.90;;;;;;5072466;28;20026;-68
2021/04/06 07:31:27;;;;;;;10.05;4.10;;;1.80;99.90;;;;;;5075868;28;20378;-68
2021/04/06 07:33:53;;;;;;;11.15;5.07;;;2.00;99.90;;;;;;5083122;28;20078;-68
2021/04/06 07:36:21;;;;;;;13.45;5.60;;;2.20;99.90;;;;;;5095614;28;20413;-68
2021/04/06 07:38:52;;;;;;;21.17;10.27;;;2.30;99.90;;;;;;5084114;28;20028;-68
2021/04/06 07:41:23;;;;;;;14.77;6.88;;;2.20;99.90;;;;;;5075139;28;20033;-67
2021/04/06 07:43:52;;;;;;;11.38;4.88;;;1.90;99.90;;;;;;5075473;28;20388;-68
2021/04/06 07:46:33;;;;;;;14.43;6.15;;;1.90;99.90;;;;;;5077389;28;20123;-68
2021/04/06 07:49:03;;;;;;;19.50;8.00;;;2.10;99.90;;;;;;5076298;28;20310;-68
2021/04/06 07:51:30;;;;;;;;;;;2.10;99.90;;;;;;5091489;28;20012;-68
2021/04/06 07:54:08;;;;;;;11.05;5.25;;;2.50;99.90;;;;;;5089002;28;19966;-69
2021/04/06 07:56:46;;;;;;;15.20;6.28;;;2.70;99.90;;;;;;5080994;28;20024;-68
2021/04/06 07:59:21;;;;;;;15.75;7.05;;;2.40;99.90;;;;;;5083046;28;20012;-68
2021/04/06 08:01:56;;;;;;;12.27;5.00;;;2.40;99.90;;;;;;5092002;28;20107;-68
2021/04/06 08:04:23;;;;;;;30.00;7.88;;;2.70;99.90;;;;;;5085041;28;20055;-68
2021/04/06 08:06:49;;;;;;;16.55;6.32;;;2.70;99.90;;;;;;5083241;28;20043;-69
2021/04/06 08:09:31;;;;;;;18.38;10.25;;;2.50;99.90;;;;;;5086835;28;20418;-69
2021/04/06 08:12:14;;;;;;;9.82;4.10;;;2.70;99.90;;;;;;5085091;28;20683;-69
2021/04/06 08:14:50;;;;;;;13.30;6.20;;;3.00;99.90;;;;;;5087408;28;20027;-68
2021/04/06 08:17:25;;;;;;;14.30;5.40;;;3.30;99.90;;;;;;5079784;28;20024;-69
2021/04/06 08:20:09;;;;;;;21.88;8.88;;;3.40;99.90;;;;;;5082612;28;20157;-68
2021/04/06 08:22:43;;;;;;;17.88;5.63;;;2.80;99.90;;;;;;5087237;28;20116;-69
2021/04/06 08:25:18;;;;;;;10.70;3.60;;;2.70;99.90;;;;;;5089010;28;20057;-69
2021/04/06 08:27:45;;;;;;;9.32;3.85;;;2.90;99.90;;;;;;5089911;28;20105;-69
2021/04/06 08:30:26;;;;;;;21.55;9.15;;;2.80;99.90;;;;;;5084563;28;20027;-69
2021/04/06 08:33:14;;;;;;;18.80;7.47;;;3.00;99.90;;;;;;5088813;28;20497;-69
2021/04/06 08:35:49;;;;;;;16.92;6.70;;;3.30;99.90;;;;;;5097709;28;20024;-69
2021/04/06 08:38:28;;;;;;;20.23;7.40;;;3.20;99.90;;;;;;5088953;28;20020;-69
2021/04/06 08:41:22;;;;;;;25.27;11.55;;;2.90;99.90;;;;;;5080680;28;20062;-68
2021/04/06 08:43:50;;;;;;;18.27;6.63;;;2.90;99.90;;;;;;5084302;28;20046;-69
2021/04/06 08:46:33;;;;;;;24.85;9.40;;;3.10;99.90;;;;;;5079365;28;20048;-68
2021/04/06 08:48:59;;;;;;;21.95;9.77;;;3.00;99.90;;;;;;5095077;28;20020;-69
2021/04/06 08:51:31;;;;;;;25.10;9.98;;;2.80;99.90;;;;;;5087415;28;20426;-69
2021/04/06 08:54:01;;;;;;;34.30;9.70;;;2.90;99.90;;;;;;5086419;28;20024;-69
2021/04/06 08:56:42;;;;;;;25.48;9.75;;;3.20;99.90;;;;;;5079030;28;20020;-69
2021/04/06 08:59:17;;;;;;;;;;;3.30;99.90;;;;;;5089383;28;20416;-69
2021/04/06 09:01:54;;;;;;;30.30;10.55;;;3.10;99.90;;;;;;5078695;28;20000;-69
2021/04/06 09:04:23;;;;;;;20.73;7.90;;;2.90;99.90;;;;;;5087414;28;20035;-69
2021/04/06 09:06:49;;;;;;;22.45;10.10;;;2.90;99.90;;;;;;5091127;28;20052;-69
2021/04/06 09:09:24;;;;;;;27.77;11.80;;;3.00;99.90;;;;;;5088742;28;20032;-69
2021/04/06 09:11:50;;;;;;;15.52;6.45;;;3.00;99.90;;;;;;5106293;28;20144;-70
2021/04/06 09:14:16;;;;;;;20.88;7.00;;;4.80;99.90;;;;;;5083025;28;20089;-69
2021/04/06 09:16:42;;;;;;;23.30;8.73;;;6.30;99.90;;;;;;5086928;28;20032;-70
2021/04/06 09:19:15;;;;;;;14.40;5.82;;;5.50;99.90;;;;;;5089051;28;20046;-69
2021/04/06 09:21:44;;;;;;;17.33;6.82;;;4.70;99.90;;;;;;5074250;28;20060;-69
2021/04/06 09:24:12;;;;;;;28.77;8.60;;;5.10;99.90;;;;;;5087452;28;20543;-67
2021/04/06 09:26:39;;;;;;;18.45;5.38;;;6.00;99.90;;;;;;5089158;28;20038;-67
2021/04/06 09:29:13;;;;;;;12.35;5.70;;;5.90;99.90;;;;;;5092252;28;20020;-69
2021/04/06 09:31:41;;;;;;;13.02;5.00;;;5.70;99.90;;;;;;5073254;28;20020;-68
2021/04/06 09:34:13;;;;;;;14.02;5.35;;;6.30;99.90;;;;;;5051880;28;20033;-70
2021/04/06 09:36:41;;;;;;;15.38;5.45;;;5.60;99.90;;;;;;5083720;28;20020;-69
2021/04/06 09:39:09;;;;;;;13.80;4.63;;;5.40;99.90;;;;;;5073521;28;20032;-69
2021/04/06 09:41:40;;;;;;;9.23;3.42;;;5.50;99.90;;;;;;5085289;28;20044;-69
2021/04/06 09:44:09;;;;;;;14.07;4.53;;;4.60;99.90;;;;;;5087773;28;20039;-69
2021/04/06 09:46:37;;;;;;;12.95;3.65;;;3.80;99.90;;;;;;5087861;28;20064;-68
2021/04/06 09:49:03;;;;;;;13.23;4.80;;;2.70;99.90;;;;;;5093588;28;20098;-69
2021/04/06 09:51:30;;;;;;;12.23;4.68;;;2.50;99.90;;;;;;5065352;28;20475;-69
2021/04/06 09:53:56;;;;;;;9.93;3.72;;;3.40;99.90;;;;;;5088321;28;20025;-69
2021/04/06 09:56:22;;;;;;;11.27;3.50;;;5.10;99.90;;;;;;5090560;28;20038;-70
2021/04/06 09:58:48;;;;;;;8.60;2.67;;;6.60;99.90;;;;;;5094372;28;20024;-70
2021/04/06 10:01:24;;;;;;;6.28;2.35;;;6.90;99.90;;;;;;5091514;28;20023;-69
2021/04/06 10:03:55;;;;;;;13.45;2.33;;;6.30;99.90;;;;;;5088384;28;20028;-69
2021/04/06 10:06:33;;;;;;;9.73;3.03;;;6.40;99.90;;;;;;5086364;28;20558;-69
2021/04/06 10:08:59;;;;;;;7.32;2.13;;;6.80;99.90;;;;;;5081458;28;20024;-69
2021/04/06 10:11:25;;;;;;;5.55;1.90;;;6.80;99.90;;;;;;5089959;28;20028;-69
2021/04/06 10:13:51;;;;;;;5.72;1.95;;;6.80;99.90;;;;;;5085882;28;20020;-69
2021/04/06 10:16:19;;;;;;;11.15;3.10;;;6.70;99.90;;;;;;5093628;28;20463;-67
2021/04/06 10:18:47;;;;;;;10.07;2.60;;;7.70;99.90;;;;;;5087918;28;20379;-67
2021/04/06 10:21:25;;;;;;;8.18;2.60;;;8.20;99.90;;;;;;5096069;28;20028;-69
2021/04/06 10:24:03;;;;;;;12.88;2.85;;;7.40;99.90;;;;;;5088204;28;20052;-69
2021/04/06 10:26:29;;;;;;;7.50;2.80;;;7.40;99.90;;;;;;5087349;28;20036;-67
2021/04/06 10:29:09;;;;;;;7.65;2.80;;;7.40;99.90;;;;;;5093147;28;20031;-69
2021/04/06 10:31:50;;;;;;;12.90;3.15;;;6.60;99.90;;;;;;5097201;28;20036;-69
2021/04/06 10:34:16;;;;;;;8.77;2.67;;;6.20;99.90;;;;;;5094229;28;20032;-69
2021/04/06 10:36:55;;;;;;;9.30;3.10;;;6.20;99.90;;;;;;5087146;28;20031;-69
2021/04/06 10:39:34;;;;;;;10.50;4.15;;;6.10;99.90;;;;;;5087894;28;20024;-69
2021/04/06 10:42:01;;;;;;;11.20;4.10;;;6.50;99.90;;;;;;5086691;28;20071;-68
2021/04/06 10:44:27;;;;;;;6.95;2.17;;;6.30;99.90;;;;;;5092000;28;20102;-69
2021/04/06 10:46:52;;;;;;;5.63;2.05;;;7.10;99.90;;;;;;5086072;28;20074;-67
2021/04/06 10:49:18;;;;;;;9.80;3.30;;;8.50;99.90;;;;;;5077704;28;20024;-69
2021/04/06 10:51:55;;;;;;;10.27;2.45;;;7.80;98.30;;;;;;5085134;28;20028;-69
2021/04/06 10:54:21;;;;;;;6.95;2.28;;;6.60;99.90;;;;;;5091025;28;20620;-69
2021/04/06 10:56:57;;;;;;;6.80;1.92;;;6.10;99.90;;;;;;5088665;28;20027;-69
2021/04/06 10:59:36;;;;;;;5.60;1.67;;;6.40;99.90;;;;;;5081195;28;20020;-69
2021/04/06 11:02:03;;;;;;;11.55;3.22;;;7.00;99.90;;;;;;5085559;28;20036;-68
2021/04/06 11:04:36;;;;;;;8.32;2.50;;;7.00;99.90;;;;;;5088193;28;20537;-69
2021/04/06 11:07:06;;;;;;;7.93;2.45;;;7.70;99.90;;;;;;5085208;28;20025;-67
2021/04/06 11:09:39;;;;;;;7.05;2.70;;;8.40;99.90;;;;;;5078825;28;20024;-67
2021/04/06 11:12:10;;;;;;;6.85;2.47;;;7.70;99.90;;;;;;5086316;28;20016;-67
2021/04/06 11:14:36;;;;;;;7.82;2.30;;;6.80;99.90;;;;;;5088575;28;20032;-67
2021/04/06 11:17:06;;;;;;;10.07;2.92;;;6.60;99.90;;;;;;5087372;28;20016;-68
2021/04/06 11:19:41;;;;;;;9.05;2.80;;;5.70;99.90;;;;;;5090512;28;20104;-68
2021/04/06 11:22:11;;;;;;;8.02;2.50;;;4.30;99.90;;;;;;5079325;28;20074;-69
2021/04/06 11:24:38;;;;;;;5.47;1.65;;;2.70;99.90;;;;;;5081253;28;20016;-68
2021/04/06 11:27:05;;;;;;;2.05;1.20;;;2.00;99.90;;;;;;5087743;28;20055;-68
2021/04/06 11:29:34;;;;;;;5.82;1.90;;;2.20;99.90;;;;;;5092413;28;20047;-68
2021/04/06 11:32:03;;;;;;;6.38;2.35;;;2.40;99.90;;;;;;5086430;28;20119;-68
2021/04/06 11:34:31;;;;;;;9.15;2.38;;;2.80;99.90;;;;;;5089001;28;20509;-68
2021/04/06 11:36:57;;;;;;;9.40;2.63;;;5.10;99.90;;;;;;5087880;28;20488;-68
2021/04/06 11:39:29;;;;;;;8.50;2.17;;;6.50;99.90;;;;;;5099190;28;20017;-67
2021/04/06 11:41:56;;;;;;;5.57;1.75;;;7.70;99.90;;;;;;5089645;28;20051;-69
2021/04/06 11:44:21;;;;;;;5.82;2.08;;;7.80;99.90;;;;;;5089848;28;20024;-67
2021/04/06 11:46:48;;;;;;;4.32;1.60;;;8.50;99.90;;;;;;5089282;28;20103;-69
2021/04/06 11:49:16;;;;;;;6.38;2.38;;;6.80;99.90;;;;;;5081772;28;20548;-67
2021/04/06 11:51:43;;;;;;;6.38;2.47;;;6.40;99.90;;;;;;5083733;28;20120;-69
2021/04/06 11:54:11;;;;;;;7.68;3.03;;;6.00;99.90;;;;;;5085195;28;20024;-68
2021/04/06 11:56:37;;;;;;;9.82;2.83;;;6.10;99.90;;;;;;5078357;28;20028;-68
2021/04/06 11:59:03;;;;;;;9.13;2.15;;;6.00;99.90;;;;;;5085309;28;20097;-68
2021/04/06 12:01:29;;;;;;;8.57;2.10;;;6.30;99.90;;;;;;5074831;28;20044;-66
2021/04/06 12:03:55;;;;;;;6.78;2.00;;;6.50;99.90;;;;;;5081777;28;20078;-67
2021/04/06 12:06:21;;;;;;;7.75;2.20;;;6.30;99.90;;;;;;5085182;28;20431;-68
2021/04/06 12:08:47;;;;;;;7.03;2.55;;;5.60;99.90;;;;;;5079719;28;20091;-69
2021/04/06 12:11:13;;;;;;;8.18;2.42;;;5.20;99.90;;;;;;5087206;28;20114;-68
2021/04/06 12:13:39;;;;;;;5.50;1.70;;;5.00;99.90;;;;;;5084831;28;20016;-68
2021/04/06 12:16:05;;;;;;;6.72;2.10;;;4.50;99.90;;;;;;5084549;28;20032;-69
2021/04/06 12:18:31;;;;;;;8.50;2.35;;;3.90;99.90;;;;;;5086802;28;20071;-68
2021/04/06 12:20:57;;;;;;;6.93;2.10;;;3.70;99.90;;;;;;5087960;28;20556;-69
2021/04/06 12:23:23;;;;;;;8.38;3.08;;;3.00;99.90;;;;;;5080364;28;20029;-69
2021/04/06 12:25:50;;;;;;;5.20;1.98;;;2.30;99.90;;;;;;5085843;28;20030;-69
2021/04/06 12:28:15;;;;;;;5.78;1.92;;;2.00;99.90;;;;;;5087615;28;20042;-70
2021/04/06 12:30:41;;;;;;;4.28;1.83;;;2.10;99.90;;;;;;5089819;28;20095;-69
2021/04/06 12:33:07;;;;;;;9.43;3.55;;;2.20;99.90;;;;;;5088874;28;20517;-69
2021/04/06 12:35:32;;;;;;;4.25;1.80;;;2.40;99.90;;;;;;5083745;28;20579;-69
2021/04/06 12:37:58;;;;;;;8.57;3.13;;;2.50;99.90;;;;;;5085694;28;20043;-70
2021/04/06 12:40:24;;;;;;;7.15;2.90;;;3.50;99.90;;;;;;5085984;28;20028;-70
2021/04/06 12:42:50;;;;;;;9.55;3.05;;;3.60;99.90;;;;;;5087402;28;20040;-70
2021/04/06 12:45:17;;;;;;;6.80;2.30;;;4.50;99.90;;;;;;5089516;28;20036;-70
2021/04/06 12:47:44;;;;;;;6.80;2.63;;;5.10;99.90;;;;;;5086341;28;20502;-70
2021/04/06 12:50:10;;;;;;;7.47;3.33;;;5.80;99.90;;;;;;5095599;28;20024;-70
2021/04/06 12:52:36;;;;;;;9.20;3.03;;;5.20;99.90;;;;;;5081111;28;20059;-69
2021/04/06 12:55:02;;;;;;;6.38;2.42;;;4.50;99.90;;;;;;5082492;28;20510;-69
2021/04/06 12:57:28;;;;;;;10.68;4.63;;;4.70;99.90;;;;;;5085265;28;20035;-69
2021/04/06 12:59:55;;;;;;;9.55;4.28;;;5.10;99.90;;;;;;5081392;28;20376;-69
2021/04/06 13:02:21;;;;;;;13.48;6.38;;;5.80;99.90;;;;;;5084872;28;20024;-69
2021/04/06 13:04:49;;;;;;;12.35;5.57;;;5.60;99.90;;;;;;5085778;28;20093;-69
2021/04/06 13:07:15;;;;;;;10.77;4.18;;;5.90;99.90;;;;;;5085400;28;20040;-68